createdAt,value
2019-02-05T00:01:38.563Z,-2.80
2019-02-05T00:04:09.177Z,-2.70
2019-02-05T00:06:39.633Z,-2.80
2019-02-05T00:09:11.753Z,-2.70
2019-02-05T00:11:42.415Z,-2.80
2019-02-05T00:14:12.821Z,-2.80
2019-02-05T00:16:43.508Z,-2.80
2019-02-05T00:19:13.919Z,-2.70
2019-02-05T00:21:44.369Z,-2.70
2019-02-05T00:24:14.879Z,-2.70
2019-02-05T00:26:45.307Z,-2.60
2019-02-05T00:29:15.687Z,-2.60
2019-02-05T00:31:46.116Z,-2.60
2019-02-05T00:34:17.552Z,-2.60
2019-02-05T00:36:47.976Z,-2.60
2019-02-05T00:39:18.436Z,-2.50
2019-02-05T00:41:48.844Z,-2.50
2019-02-05T00:44:19.359Z,-2.50
2019-02-05T00:46:50.769Z,-2.50
2019-02-05T00:49:21.192Z,-2.50
2019-02-05T00:51:51.623Z,-2.50
2019-02-05T00:54:22.099Z,-2.40
2019-02-05T00:56:52.723Z,-2.40
2019-02-05T00:59:23.134Z,-2.40
2019-02-05T01:01:53.564Z,-2.40
2019-02-05T01:04:23.981Z,-2.30
2019-02-05T01:06:54.503Z,-2.30
2019-02-05T01:09:24.972Z,-2.30
2019-02-05T01:11:55.383Z,-2.30
2019-02-05T01:14:25.772Z,-2.30
2019-02-05T01:16:56.223Z,-2.30
2019-02-05T01:19:26.987Z,-2.20
2019-02-05T01:21:57.415Z,-2.20
2019-02-05T01:24:27.935Z,-2.30
2019-02-05T01:29:27.991Z,-2.20
2019-02-05T01:34:28.127Z,-2.10
2019-02-05T01:39:28.648Z,-2.10
2019-02-05T01:44:28.713Z,-2.10
2019-02-05T01:49:28.831Z,-2.20
2019-02-05T01:51:59.555Z,-2.20
2019-02-05T01:54:29.995Z,-2.20
2019-02-05T01:57:00.767Z,-2.30
2019-02-05T01:59:31.115Z,-2.30
2019-02-05T02:02:01.499Z,-2.40
2019-02-05T02:07:23.295Z,-2.40
2019-02-05T02:09:53.707Z,-2.50
2019-02-05T02:12:24.179Z,-2.50
2019-02-05T02:14:54.895Z,-2.50
2019-02-05T02:17:25.329Z,-2.50
2019-02-05T02:19:55.787Z,-2.50
2019-02-05T02:22:26.207Z,-2.50
2019-02-05T02:24:56.675Z,-2.50
2019-02-05T02:27:27.095Z,-2.50
2019-02-05T02:29:57.531Z,-2.50
2019-02-05T02:32:27.916Z,-2.50
2019-02-05T02:34:58.341Z,-2.50
2019-02-05T02:37:28.845Z,-2.50
2019-02-05T02:42:29.372Z,-2.50
2019-02-05T02:44:59.784Z,-2.50
2019-02-05T02:47:30.245Z,-2.60
2019-02-05T02:50:00.687Z,-2.60
2019-02-05T02:52:31.444Z,-2.50
2019-02-05T02:55:02.191Z,-2.50
2019-02-05T02:57:32.679Z,-2.60
2019-02-05T03:00:03.116Z,-2.60
2019-02-05T03:02:34.813Z,-2.50
2019-02-05T03:05:07.301Z,-2.50
2019-02-05T03:07:37.723Z,-2.60
2019-02-05T03:12:39.587Z,-2.50
2019-02-05T03:15:10.337Z,-2.40
2019-02-05T03:17:40.762Z,-2.40
2019-02-05T03:20:12.994Z,-2.30
2019-02-05T03:22:45.305Z,-2.30
2019-02-05T03:25:18.090Z,-2.30
2019-02-05T03:27:53.840Z,-2.30
2019-02-05T03:30:23.870Z,-2.30
2019-02-05T03:32:54.769Z,-2.40
2019-02-05T03:35:25.455Z,-2.30
2019-02-05T03:37:58.243Z,-2.30
2019-02-05T03:41:00.340Z,-2.30
2019-02-05T03:43:30.949Z,-2.20
2019-02-05T03:46:03.630Z,-2.30
2019-02-05T03:48:34.927Z,-2.20
2019-02-05T03:51:52.989Z,-2.30
2019-02-05T03:54:52.219Z,-2.30
2019-02-05T03:58:09.483Z,-2.30
2019-02-05T04:01:30.184Z,-2.30
2019-02-05T04:07:35.143Z,-2.20
2019-02-05T04:10:56.040Z,-2.20
2019-02-05T04:13:44.733Z,-2.30
2019-02-05T04:16:55.527Z,-2.30
2019-02-05T04:20:08.656Z,-2.40
2019-02-05T04:23:10.279Z,-2.50
2019-02-05T04:25:53.883Z,-2.50
2019-02-05T04:29:05.999Z,-2.50
2019-02-05T04:32:08.675Z,-2.50
2019-02-05T04:38:15.375Z,-2.50
2019-02-05T04:41:12.331Z,-2.60
2019-02-05T04:44:37.735Z,-2.60
2019-02-05T04:47:50.609Z,-2.60
2019-02-05T04:50:32.147Z,-2.60
2019-02-05T04:53:55.523Z,-2.60
2019-02-05T04:57:06.875Z,-2.60
2019-02-05T05:00:12.519Z,-2.70
2019-02-05T05:03:08.479Z,-2.70
2019-02-05T05:06:35.363Z,-2.70
2019-02-05T05:09:26.956Z,-2.70
2019-02-05T05:11:57.375Z,-2.80
2019-02-05T05:14:27.807Z,-2.80
2019-02-05T05:16:58.231Z,-2.80
2019-02-05T05:19:28.658Z,-2.80
2019-02-05T05:21:59.111Z,-2.80
2019-02-05T05:24:29.631Z,-2.80
2019-02-05T05:27:00.066Z,-2.90
2019-02-05T05:29:33.135Z,-2.80
2019-02-05T05:32:02.631Z,-2.80
2019-02-05T05:34:33.073Z,-2.70
2019-02-05T05:39:32.343Z,-2.70
2019-02-05T05:42:02.768Z,-2.70
2019-02-05T05:44:33.244Z,-2.60
2019-02-05T05:47:03.891Z,-2.70
2019-02-05T05:49:39.173Z,-2.70
2019-02-05T05:52:09.581Z,-2.70
2019-02-05T05:54:41.292Z,-2.80
2019-02-05T05:57:12.176Z,-2.80
2019-02-05T05:59:42.593Z,-2.80
2019-02-05T06:02:13.020Z,-2.80
2019-02-05T06:04:43.491Z,-2.80
2019-02-05T06:07:13.899Z,-2.90
2019-02-05T06:09:44.575Z,-3.00
2019-02-05T06:12:15.003Z,-3.00
2019-02-05T06:14:47.618Z,-3.00
2019-02-05T06:17:18.060Z,-3.10
2019-02-05T06:19:48.519Z,-3.10
2019-02-05T06:22:18.936Z,-3.10
2019-02-05T06:24:49.412Z,-3.20
2019-02-05T06:27:19.839Z,-3.10
2019-02-05T06:29:50.587Z,-3.10
2019-02-05T06:32:21.015Z,-3.10
2019-02-05T06:34:51.476Z,-3.00
2019-02-05T06:37:21.907Z,-3.00
2019-02-05T06:39:52.373Z,-2.90
2019-02-05T06:42:22.911Z,-2.80
2019-02-05T06:44:53.570Z,-2.50
2019-02-05T06:47:23.995Z,-2.20
2019-02-05T06:49:54.455Z,-2.20
2019-02-05T06:52:24.883Z,-2.30
2019-02-05T06:54:55.334Z,-2.50
2019-02-05T06:57:28.176Z,-2.60
2019-02-05T06:59:58.948Z,-2.60
2019-02-05T07:02:29.811Z,-2.10
2019-02-05T07:07:32.108Z,-1.10
2019-02-05T07:10:02.532Z,-1.50
2019-02-05T07:12:33.263Z,-2.00
2019-02-05T07:15:03.927Z,-2.30
2019-02-05T07:17:36.502Z,-2.30
2019-02-05T07:20:07.616Z,-2.50
2019-02-05T07:25:10.219Z,-2.50
2019-02-05T07:27:40.679Z,-2.50
2019-02-05T07:30:17.512Z,-2.40
2019-02-05T07:32:47.988Z,-1.40
2019-02-05T07:35:18.539Z,0.20
2019-02-05T07:37:49.339Z,1.50
2019-02-05T07:40:20.436Z,2.20
2019-02-05T07:47:52.678Z,3.60
2019-02-05T07:50:24.995Z,3.80
2019-02-05T07:55:25.719Z,4.80
2019-02-05T07:57:56.167Z,4.70
2019-02-05T08:00:28.167Z,5.50
2019-02-05T08:02:58.615Z,6.00
2019-02-05T08:05:30.776Z,6.20
2019-02-05T08:08:01.822Z,6.20
2019-02-05T08:10:32.339Z,6.00
2019-02-05T08:13:02.852Z,6.40
2019-02-05T08:15:33.876Z,6.30
2019-02-05T08:20:34.407Z,8.20
2019-02-05T08:23:05.307Z,8.40
2019-02-05T08:25:35.757Z,8.50
2019-02-05T08:28:08.381Z,8.70
2019-02-05T08:30:44.775Z,9.20
2019-02-05T08:33:15.205Z,9.70
2019-02-05T08:35:45.615Z,9.20
2019-02-05T08:38:16.059Z,8.90
2019-02-05T08:40:46.875Z,8.90
2019-02-05T08:43:17.299Z,7.90
2019-02-05T08:45:56.301Z,7.70
2019-02-05T08:48:19.755Z,7.80
2019-02-05T08:50:50.203Z,8.40
2019-02-05T08:53:20.619Z,8.50
2019-02-05T08:55:52.537Z,8.80
2019-02-05T08:58:30.652Z,7.90
2019-02-05T09:00:55.007Z,8.80
2019-02-05T09:03:25.467Z,8.80
2019-02-05T09:05:55.883Z,7.70
2019-02-05T09:08:26.319Z,5.80
2019-02-05T09:10:57.030Z,4.90
2019-02-05T09:13:27.475Z,6.00
2019-02-05T09:15:57.885Z,9.00
2019-02-05T09:18:28.344Z,8.70
2019-02-05T09:20:58.755Z,8.70
2019-02-05T09:23:29.473Z,7.70
2019-02-05T09:26:00.088Z,6.90
2019-02-05T09:31:00.243Z,10.30
2019-02-05T09:33:30.752Z,12.00
2019-02-05T09:36:01.187Z,14.20
2019-02-05T09:38:31.639Z,14.30
2019-02-05T09:41:02.359Z,14.10
2019-02-05T09:43:32.775Z,10.50
2019-02-05T09:46:03.423Z,9.50
2019-02-05T09:48:33.829Z,6.80
2019-02-05T09:51:04.475Z,5.60
2019-02-05T09:53:34.887Z,5.60
2019-02-05T09:58:35.588Z,6.10
2019-02-05T10:01:06.820Z,7.40
2019-02-05T10:03:37.235Z,6.70
2019-02-05T10:06:07.747Z,6.00
2019-02-05T10:08:38.328Z,5.60
2019-02-05T10:11:08.844Z,5.60
2019-02-05T10:13:39.288Z,5.80
2019-02-05T10:16:09.695Z,5.70
2019-02-05T10:18:42.167Z,5.20
2019-02-05T10:26:12.153Z,5.00
2019-02-05T10:31:12.243Z,4.00
2019-02-05T10:36:12.364Z,3.90
2019-02-05T10:41:12.679Z,3.70
2019-02-05T10:48:42.439Z,4.00
2019-02-05T10:51:12.857Z,4.20
2019-02-05T10:56:13.278Z,4.40
2019-02-05T11:01:13.439Z,3.50
2019-02-05T11:08:44.575Z,3.10
2019-02-05T11:11:15.315Z,3.00
2019-02-05T11:13:46.735Z,3.00
2019-02-05T11:16:17.168Z,2.90
2019-02-05T11:18:47.591Z,2.60
2019-02-05T11:21:18.070Z,2.50
2019-02-05T11:23:48.448Z,2.50
2019-02-05T11:26:19.162Z,2.40
2019-02-05T11:31:20.533Z,2.40
2019-02-05T11:33:50.979Z,2.30
2019-02-05T11:36:21.382Z,2.50
2019-02-05T11:38:51.836Z,2.60
2019-02-05T11:41:22.451Z,2.60
2019-02-05T11:43:52.901Z,2.80
2019-02-05T11:46:23.307Z,2.70
2019-02-05T11:48:53.748Z,2.80
2019-02-05T11:51:26.215Z,2.80
2019-02-05T11:53:56.660Z,2.60
2019-02-05T11:56:27.080Z,2.60
2019-02-05T11:58:57.539Z,2.40
2019-02-05T12:01:38.852Z,2.40
2019-02-05T12:06:37.223Z,2.20
2019-02-05T12:09:21.808Z,2.30
2019-02-05T12:11:52.228Z,2.20
2019-02-05T12:14:23.734Z,2.10
2019-02-05T12:16:54.169Z,2.00
2019-02-05T12:19:24.595Z,2.00
2019-02-05T12:21:56.676Z,2.00
2019-02-05T12:24:27.108Z,1.90
2019-02-05T12:26:57.551Z,1.90
2019-02-05T12:29:27.975Z,1.70
2019-02-05T12:31:58.444Z,1.60
2019-02-05T12:34:28.859Z,1.60
2019-02-05T12:39:34.412Z,1.60
2019-02-05T12:42:05.113Z,1.70
2019-02-05T12:44:35.559Z,1.60
2019-02-05T12:47:06.004Z,1.60
2019-02-05T12:49:36.719Z,1.60
2019-02-05T12:52:07.248Z,1.50
2019-02-05T12:54:37.683Z,1.60
2019-02-05T12:59:37.759Z,1.50
2019-02-05T13:04:38.617Z,1.40
2019-02-05T13:07:09.027Z,1.50
2019-02-05T13:09:39.380Z,1.40
2019-02-05T13:14:41.099Z,1.40
2019-02-05T13:17:11.991Z,1.50
2019-02-05T13:19:42.664Z,1.50
2019-02-05T13:22:13.396Z,1.50
2019-02-05T13:27:14.156Z,1.60
2019-02-05T13:29:45.061Z,1.60
2019-02-05T13:32:15.492Z,1.60
2019-02-05T13:34:45.935Z,1.60
2019-02-05T13:37:16.398Z,1.60
2019-02-05T13:39:46.839Z,1.50
2019-02-05T13:42:17.644Z,1.40
2019-02-05T13:44:48.391Z,1.40
2019-02-05T13:47:18.756Z,1.40
2019-02-05T13:49:49.224Z,1.40
2019-02-05T13:52:19.656Z,1.40
2019-02-05T13:54:51.238Z,1.50
2019-02-05T13:57:22.009Z,1.40
2019-02-05T13:59:52.399Z,1.40
2019-02-05T14:02:22.880Z,1.40
2019-02-05T14:04:53.751Z,1.40
2019-02-05T14:09:54.131Z,1.40
2019-02-05T14:12:24.920Z,1.40
2019-02-05T14:14:55.272Z,1.40
2019-02-05T14:17:25.722Z,1.40
2019-02-05T14:19:56.175Z,1.40
2019-02-05T14:22:26.599Z,1.40
2019-02-05T14:24:57.071Z,1.40
2019-02-05T14:27:27.496Z,1.40
2019-02-05T14:29:57.940Z,1.40
2019-02-05T14:32:30.750Z,1.40
2019-02-05T14:35:01.468Z,1.40
2019-02-05T14:37:31.915Z,1.30
2019-02-05T14:40:02.547Z,1.30
2019-02-05T14:42:34.075Z,1.30
2019-02-05T14:47:34.852Z,1.40
2019-02-05T14:50:07.305Z,1.30
2019-02-05T14:52:38.165Z,1.30
2019-02-05T14:55:08.930Z,1.30
2019-02-05T14:57:39.352Z,1.20
2019-02-05T15:02:42.719Z,1.30
2019-02-05T15:05:13.443Z,1.20
2019-02-05T15:07:43.880Z,1.20
2019-02-05T15:12:44.627Z,1.20
2019-02-05T15:15:16.585Z,1.20
2019-02-05T15:17:47.227Z,1.20
2019-02-05T15:20:32.887Z,1.20
2019-02-05T15:23:03.349Z,1.10
2019-02-05T15:25:34.044Z,1.20
2019-02-05T15:28:04.787Z,1.10
2019-02-05T15:30:37.394Z,1.10
2019-02-05T15:33:38.472Z,1.20
2019-02-05T15:36:27.796Z,1.20
2019-02-05T15:38:58.863Z,1.20
2019-02-05T15:41:31.828Z,1.20
2019-02-05T15:44:02.293Z,1.10
2019-02-05T15:46:33.907Z,1.20
2019-02-05T15:49:04.372Z,1.10
2019-02-05T15:51:37.099Z,1.00
2019-02-05T15:56:38.465Z,1.10
2019-02-05T15:59:31.343Z,1.10
2019-02-05T16:02:23.039Z,1.00
2019-02-05T16:04:54.481Z,1.00
2019-02-05T16:07:29.805Z,1.00
2019-02-05T16:10:00.382Z,1.00
2019-02-05T16:12:30.888Z,0.90
2019-02-05T16:15:01.319Z,0.90
2019-02-05T16:17:31.736Z,0.80
2019-02-05T16:20:02.163Z,0.80
2019-02-05T16:22:32.643Z,0.80
2019-02-05T16:25:03.067Z,0.80
2019-02-05T16:27:33.716Z,0.80
2019-02-05T16:30:06.031Z,0.70
2019-02-05T16:35:07.911Z,0.70
2019-02-05T16:37:39.427Z,0.80
2019-02-05T16:40:13.732Z,0.80
2019-02-05T16:42:44.206Z,0.70
2019-02-05T16:45:17.888Z,0.70
2019-02-05T16:47:48.586Z,0.70
2019-02-05T16:50:21.831Z,0.70
2019-02-05T16:52:52.613Z,0.70
2019-02-05T16:55:23.034Z,0.80
2019-02-05T16:57:53.791Z,0.70
2019-02-05T17:00:32.258Z,0.70
2019-02-05T17:03:02.655Z,0.70
2019-02-05T17:05:34.927Z,0.70
2019-02-05T17:08:05.471Z,0.70
2019-02-05T17:13:06.180Z,0.70
2019-02-05T17:15:36.639Z,0.70
2019-02-05T17:18:07.467Z,0.70
2019-02-05T17:20:38.151Z,0.70
2019-02-05T17:23:08.886Z,0.70
2019-02-05T17:25:39.386Z,0.80
2019-02-05T17:28:09.900Z,0.80
2019-02-05T17:30:40.619Z,0.70
2019-02-05T17:33:11.039Z,0.80
2019-02-05T17:35:41.519Z,0.80
2019-02-05T17:40:43.128Z,0.80
2019-02-05T17:45:43.744Z,0.80
2019-02-05T17:48:16.973Z,0.80
2019-02-05T17:50:47.859Z,0.80
2019-02-05T17:53:18.528Z,0.80
2019-02-05T17:55:48.967Z,0.90
2019-02-05T17:58:19.463Z,0.90
2019-02-05T18:03:33.230Z,0.90
2019-02-05T18:06:03.644Z,0.90
2019-02-05T18:08:36.321Z,0.90
2019-02-05T18:11:07.896Z,0.90
2019-02-05T18:13:38.412Z,0.90
2019-02-05T18:16:21.407Z,0.90
2019-02-05T18:18:51.833Z,1.00
2019-02-05T18:21:22.275Z,0.90
2019-02-05T18:23:53.015Z,1.00
2019-02-05T18:26:23.639Z,1.00
2019-02-05T18:31:26.378Z,1.00
2019-02-05T18:33:57.027Z,1.00
2019-02-05T18:36:27.377Z,1.00
2019-02-05T18:38:58.231Z,1.00
2019-02-05T18:41:28.595Z,1.00
2019-02-05T18:43:59.019Z,1.00
2019-02-05T18:46:29.431Z,0.90
2019-02-05T18:49:05.044Z,1.00
2019-02-05T18:51:32.439Z,1.00
2019-02-05T18:56:32.575Z,1.00
2019-02-05T18:59:16.072Z,1.00
2019-02-05T19:01:46.542Z,1.00
2019-02-05T19:04:17.271Z,1.00
2019-02-05T19:06:47.652Z,1.00
2019-02-05T19:09:18.073Z,1.10
2019-02-05T19:11:48.864Z,1.00
2019-02-05T19:14:19.291Z,1.00
2019-02-05T19:16:49.723Z,1.00
2019-02-05T19:19:20.138Z,1.10
2019-02-05T19:21:50.488Z,1.10
2019-02-05T19:24:52.036Z,1.00
2019-02-05T19:27:22.455Z,1.10
2019-02-05T19:29:52.892Z,1.10
2019-02-05T19:32:27.019Z,1.10
2019-02-05T19:34:57.443Z,1.10
2019-02-05T19:37:28.252Z,1.00
2019-02-05T19:39:58.868Z,1.10
2019-02-05T19:42:30.398Z,1.00
2019-02-05T19:45:18.680Z,1.00
2019-02-05T19:47:49.272Z,1.00
2019-02-05T19:50:19.911Z,1.00
2019-02-05T19:52:50.331Z,1.00
2019-02-05T19:55:20.785Z,1.00
2019-02-05T19:57:52.537Z,1.00
2019-02-05T20:00:23.363Z,1.10
2019-02-05T20:05:25.251Z,1.00
2019-02-05T20:07:55.600Z,1.00
2019-02-05T20:10:26.049Z,1.10
2019-02-05T20:12:56.477Z,1.10
2019-02-05T20:17:56.589Z,1.10
2019-02-05T20:20:27.023Z,1.10
2019-02-05T20:22:57.539Z,1.10
2019-02-05T20:25:27.992Z,1.10
2019-02-05T20:27:58.511Z,1.20
2019-02-05T20:30:28.878Z,1.20
2019-02-05T20:32:59.356Z,1.10
2019-02-05T20:35:29.783Z,1.20
2019-02-05T20:38:01.707Z,1.10
2019-02-05T20:40:32.133Z,1.10
2019-02-05T20:43:02.652Z,1.20
2019-02-05T20:45:33.071Z,1.20
2019-02-05T20:48:03.549Z,1.20
2019-02-05T20:50:34.041Z,1.20
2019-02-05T20:55:35.856Z,1.30
2019-02-05T20:58:06.571Z,1.30
2019-02-05T21:00:37.019Z,1.30
2019-02-05T21:03:07.444Z,1.30
2019-02-05T21:08:08.595Z,1.30
2019-02-05T21:10:39.152Z,1.30
2019-02-05T21:13:11.660Z,1.30
2019-02-05T21:15:42.143Z,1.20
2019-02-05T21:18:12.683Z,1.30
2019-02-05T21:20:43.492Z,1.30
2019-02-05T21:23:14.347Z,1.30
2019-02-05T21:25:45.059Z,1.40
2019-02-05T21:28:16.319Z,1.30
2019-02-05T21:30:48.526Z,1.40
2019-02-05T21:35:49.552Z,1.30
2019-02-05T21:38:19.995Z,1.30
2019-02-05T21:40:50.419Z,1.30
2019-02-05T21:45:53.311Z,1.40
2019-02-05T21:50:53.907Z,1.40
2019-02-05T21:53:24.331Z,1.40
2019-02-05T21:55:54.770Z,1.40
2019-02-05T21:58:25.193Z,1.30
2019-02-05T22:00:55.614Z,1.30
2019-02-05T22:03:26.328Z,1.40
2019-02-05T22:05:56.761Z,1.40
2019-02-05T22:08:27.159Z,1.40
2019-02-05T22:10:57.611Z,1.40
2019-02-05T22:13:28.064Z,1.40
2019-02-05T22:15:59.115Z,1.40
2019-02-05T22:18:29.881Z,1.40
2019-02-05T22:21:00.315Z,1.40
2019-02-05T22:23:32.455Z,1.40
2019-02-05T22:26:02.903Z,1.40
2019-02-05T22:28:33.912Z,1.50
2019-02-05T22:31:04.436Z,1.40
2019-02-05T22:33:34.987Z,1.40
2019-02-05T22:36:06.040Z,1.40
2019-02-05T22:38:36.532Z,1.40
2019-02-05T22:41:08.092Z,1.40
2019-02-05T22:43:38.621Z,1.40
2019-02-05T22:46:09.092Z,1.50
2019-02-05T22:48:40.140Z,1.40
2019-02-05T22:51:10.578Z,1.50
2019-02-05T22:53:41.091Z,1.40
2019-02-05T22:56:14.480Z,1.50
2019-02-05T23:01:30.896Z,1.40
2019-02-05T23:04:21.366Z,1.40
2019-02-05T23:10:30.104Z,1.40
2019-02-05T23:15:41.187Z,1.40
2019-02-05T23:18:12.401Z,1.40
2019-02-05T23:20:42.843Z,1.40
2019-02-05T23:23:13.376Z,1.40
2019-02-05T23:25:43.788Z,1.40
2019-02-05T23:28:14.232Z,1.40
2019-02-05T23:30:44.655Z,1.40
2019-02-05T23:33:15.725Z,1.40
2019-02-05T23:35:46.240Z,1.40
2019-02-05T23:38:16.671Z,1.30
2019-02-05T23:40:47.142Z,1.40
2019-02-05T23:43:17.527Z,1.40
2019-02-05T23:46:00.827Z,1.40
2019-02-05T23:48:20.315Z,1.40
2019-02-05T23:50:50.767Z,1.40
2019-02-05T23:53:21.171Z,1.40
2019-02-05T23:55:51.627Z,1.40
2019-02-05T23:58:22.034Z,1.40
